Time;durP1;ratioP1;P1;durP2;ratioP2;P2;SDS_P1;SDS_P2;PMS_P1;PMS_P2;Temp;Humidity;BMP_temperature;BMP_pressure;BME280_temperature;BME280_humidity;BME280_pressure;Samples;Min_cycle;Max_cycle;Signal;HPM_P1;HPM_P2
2022/04/02 00:01:58;;;;;;;1.83;1.50;;;;;2.50;100687.00;;;;5022401;28;20230;-69
2022/04/02 00:04:45;;;;;;;1.80;1.57;;;;;2.50;100696.00;;;;5012797;28;20754;-68
2022/04/02 00:07:31;;;;;;;1.83;1.20;;;;;2.50;100693.00;;;;5013964;28;20241;-72
2022/04/02 00:10:17;;;;;;;1.37;1.20;;;;;2.50;100692.00;;;;5012738;28;20314;-69
2022/04/02 00:13:04;;;;;;;3.40;2.63;;;;;2.50;100688.00;;;;5014956;28;20265;-71
2022/04/02 00:15:51;;;;;;;3.63;1.80;;;;;2.50;100679.00;;;;5015207;28;20703;-68
2022/04/02 00:18:39;;;;;;;2.30;1.47;;;;;2.60;100688.00;;;;5017059;28;20230;-69
2022/04/02 00:21:25;;;;;;;2.17;1.80;;;;;2.60;100692.00;;;;5032517;28;20737;-71
2022/04/02 00:24:12;;;;;;;1.53;1.40;;;;;2.50;100699.00;;;;5043143;28;20824;-69
2022/04/02 00:26:58;;;;;;;2.17;1.57;;;;;2.50;100692.00;;;;5037433;28;20241;-69
2022/04/02 00:29:45;;;;;;;6.07;1.50;;;;;2.50;100701.00;;;;5038777;28;20241;-69
2022/04/02 00:32:32;;;;;;;1.47;1.37;;;;;2.60;100679.00;;;;5039191;28;20348;-71
2022/04/02 00:35:18;;;;;;;1.93;1.27;;;;;2.60;100709.00;;;;5030387;28;20232;-70
2022/04/02 00:38:04;;;;;;;2.60;1.70;;;;;2.60;100699.00;;;;5046465;28;20303;-71
2022/04/02 00:40:50;;;;;;;1.50;1.40;;;;;2.60;100695.00;;;;5046354;28;20379;-71
2022/04/02 00:43:38;;;;;;;2.50;1.33;;;;;2.70;100690.00;;;;5046169;28;20252;-70
2022/04/02 00:46:26;;;;;;;1.30;1.20;;;;;2.50;100695.00;;;;5024905;28;20234;-70
2022/04/02 00:49:15;;;;;;;4.13;1.10;;;;;2.50;100696.00;;;;5045769;28;20295;-68
2022/04/02 00:52:01;;;;;;;1.70;1.30;;;;;2.50;100706.00;;;;5045661;28;20263;-68
2022/04/02 00:54:50;;;;;;;1.67;1.40;;;;;2.50;100703.00;;;;5045832;28;20241;-65
2022/04/02 00:57:37;;;;;;;5.47;1.50;;;;;2.50;100705.00;;;;5034546;28;20232;-69
2022/04/02 01:00:23;;;;;;;1.83;1.40;;;;;2.50;100707.00;;;;5030580;28;20232;-70
2022/04/02 01:03:13;;;;;;;1.83;1.57;;;;;2.50;100699.00;;;;5045445;28;20244;-70
2022/04/02 01:05:59;;;;;;;2.07;1.63;;;;;2.40;100709.00;;;;5045882;28;20299;-70
2022/04/02 01:08:47;;;;;;;1.73;1.63;;;;;2.40;100710.00;;;;5045540;28;20245;-70
2022/04/02 01:11:38;;;;;;;1.63;1.43;;;;;2.50;100716.00;;;;5033429;28;20248;-69
2022/04/02 01:14:24;;;;;;;1.47;1.37;;;;;2.40;100716.00;;;;5045924;28;20798;-69
2022/04/02 01:17:11;;;;;;;2.40;1.60;;;;;2.50;100714.00;;;;5045431;28;20244;-69
2022/04/02 01:20:00;;;;;;;2.23;1.63;;;;;2.50;100726.00;;;;5035505;28;20234;-71
2022/04/02 01:22:48;;;;;;;1.33;1.23;;;;;2.50;100719.00;;;;5026795;28;20234;-70
2022/04/02 01:25:35;;;;;;;3.00;1.83;;;;;2.50;100722.00;;;;5039805;28;20251;-70
2022/04/02 01:28:22;;;;;;;2.33;1.57;;;;;2.40;100722.00;;;;5027857;28;20718;-70
2022/04/02 01:31:10;;;;;;;3.00;1.50;;;;;2.40;100726.00;;;;5034892;28;20247;-70
2022/04/02 01:33:56;;;;;;;4.70;1.70;;;;;2.40;100724.00;;;;5043741;28;20927;-70
2022/04/02 01:36:42;;;;;;;1.97;1.87;;;;;2.50;100728.00;;;;5043671;28;20228;-65
2022/04/02 01:39:30;;;;;;;1.47;1.37;;;;;2.50;100724.00;;;;5031694;28;20229;-68
2022/04/02 01:42:20;;;;;;;2.07;1.50;;;;;2.40;100726.00;;;;5044644;28;20233;-69
2022/04/02 01:45:07;;;;;;;1.60;1.50;;;;;2.40;100727.00;;;;5045211;28;20244;-69
2022/04/02 01:47:54;;;;;;;1.17;1.13;;;;;2.50;100731.00;;;;5045239;28;20614;-69
2022/04/02 01:50:42;;;;;;;1.27;1.17;;;;;2.40;100735.00;;;;5038539;28;20301;-71
2022/04/02 01:53:29;;;;;;;1.53;1.40;;;;;2.40;100730.00;;;;5031033;28;20237;-69
2022/04/02 01:56:16;;;;;;;1.30;1.20;;;;;2.40;100718.00;;;;5044154;28;20283;-70
2022/04/02 01:59:03;;;;;;;1.20;1.10;;;;;2.50;100727.00;;;;5044506;28;20233;-70
2022/04/02 02:01:49;;;;;;;3.03;1.70;;;;;2.40;100730.00;;;;5044679;28;20240;-69
2022/04/02 02:04:36;;;;;;;2.10;1.40;;;;;2.40;100731.00;;;;5032387;28;20228;-69
2022/04/02 02:07:23;;;;;;;1.77;1.30;;;;;2.50;100730.00;;;;5023110;28;20236;-69
2022/04/02 02:10:10;;;;;;;1.50;1.17;;;;;2.40;100740.00;;;;5038817;28;20225;-69
2022/04/02 02:12:57;;;;;;;1.60;1.50;;;;;2.40;100735.00;;;;5044901;28;20237;-68
2022/04/02 02:15:44;;;;;;;1.97;1.10;;;;;2.40;100738.00;;;;5026307;28;20361;-70
2022/04/02 02:18:30;;;;;;;1.40;1.30;;;;;2.40;100742.00;;;;5041365;28;20232;-69
2022/04/02 02:21:16;;;;;;;2.37;1.90;;;;;2.40;100743.00;;;;5037365;28;20287;-68
2022/04/02 02:24:04;;;;;;;1.00;1.00;;;;;2.40;100760.00;;;;5040714;28;20910;-69
2022/04/02 02:26:50;;;;;;;1.57;1.47;;;;;2.40;100754.00;;;;5044868;28;20240;-66
2022/04/02 02:29:38;;;;;;;1.23;1.20;;;;;2.40;100748.00;;;;5026873;28;20268;-70
2022/04/02 02:32:25;;;;;;;1.60;1.50;;;;;2.40;100707.00;;;;5028872;28;20302;-70
2022/04/02 02:38:20;;;;;;;1.73;1.60;;;;;2.40;100750.00;;;;5044192;28;20348;-71
2022/04/02 02:41:07;;;;;;;1.30;1.20;;;;;2.40;100758.00;;;;5012652;28;20930;-68
2022/04/02 02:43:53;;;;;;;1.50;1.40;;;;;2.40;100753.00;;;;5015487;28;20814;-67
2022/04/02 02:46:40;;;;;;;1.83;1.20;;;;;2.40;100769.00;;;;5015220;28;20334;-70
2022/04/02 02:49:27;;;;;;;1.10;1.10;;;;;2.40;100750.00;;;;5008889;28;20234;-70
2022/04/02 02:52:13;;;;;;;2.10;1.50;;;;;2.50;100752.00;;;;5010590;28;20229;-71
2022/04/02 02:55:00;;;;;;;1.40;1.27;;;;;2.40;100752.00;;;;5007672;28;20232;-68
2022/04/02 02:57:47;;;;;;;1.13;1.03;;;;;2.30;100760.00;;;;5011736;28;20312;-70
2022/04/02 03:00:33;;;;;;;1.33;1.30;;;;;2.30;100757.00;;;;5044249;28;20308;-68
2022/04/02 03:03:22;;;;;;;1.87;1.50;;;;;2.50;100749.00;;;;5043646;28;20228;-70
2022/04/02 03:06:08;;;;;;;1.63;1.40;;;;;2.40;100763.00;;;;5043602;28;20359;-69
2022/04/02 03:08:55;;;;;;;2.03;1.50;;;;;2.30;100761.00;;;;5043724;28;20244;-70
2022/04/02 03:11:43;;;;;;;1.20;1.00;;;;;2.40;100765.00;;;;5031821;28;20260;-69
2022/04/02 03:14:30;;;;;;;5.47;1.60;;;;;2.40;100768.00;;;;5026449;28;20232;-69
2022/04/02 03:17:16;;;;;;;1.43;1.33;;;;;2.40;100770.00;;;;5043483;28;20236;-70
2022/04/02 03:20:05;;;;;;;1.27;1.17;;;;;2.30;100762.00;;;;5030255;28;20300;-70
2022/04/02 03:22:51;;;;;;;2.50;1.50;;;;;2.40;100773.00;;;;5043544;28;20314;-69
2022/04/02 03:25:38;;;;;;;1.67;1.57;;;;;2.30;100777.00;;;;5043707;28;20236;-70
2022/04/02 03:28:24;;;;;;;1.50;1.20;;;;;2.30;100768.00;;;;5043422;28;20232;-69
2022/04/02 03:31:10;;;;;;;2.97;1.57;;;;;2.30;100777.00;;;;5034910;28;20236;-70
2022/04/02 03:33:57;;;;;;;2.87;2.00;;;;;2.30;100780.00;;;;5043629;28;20240;-70
2022/04/02 03:36:46;;;;;;;1.00;1.00;;;;;2.30;100780.00;;;;5036559;28;20706;-69
2022/04/02 03:39:32;;;;;;;2.27;1.63;;;;;2.40;100788.00;;;;5028510;28;20271;-69
2022/04/02 03:42:18;;;;;;;1.33;1.23;;;;;2.30;100784.00;;;;5043180;28;20742;-72
2022/04/02 03:45:07;;;;;;;2.93;1.63;;;;;2.30;100790.00;;;;5043561;28;20228;-69
2022/04/02 03:47:53;;;;;;;6.23;1.70;;;;;2.30;100790.00;;;;5044105;28;20232;-66
2022/04/02 03:50:39;;;;;;;2.10;1.27;;;;;2.40;100792.00;;;;5030313;28;20236;-70
2022/04/02 03:53:27;;;;;;;1.70;1.40;;;;;2.30;100792.00;;;;5042585;28;20303;-70
2022/04/02 03:56:13;;;;;;;2.63;1.67;;;;;2.30;100783.00;;;;5043200;28;20232;-69
2022/04/02 03:59:00;;;;;;;1.40;1.30;;;;;2.30;100797.00;;;;5043405;28;20224;-70
2022/04/02 04:01:46;;;;;;;3.90;1.00;;;;;2.30;100798.00;;;;5032232;28;20637;-68
2022/04/02 04:04:33;;;;;;;1.30;1.20;;;;;2.30;100798.00;;;;5033214;28;20227;-69
2022/04/02 04:07:19;;;;;;;2.40;1.53;;;;;2.30;100800.00;;;;5044847;28;20272;-70
2022/04/02 04:10:08;;;;;;;1.23;1.13;;;;;2.30;100816.00;;;;5046966;28;20236;-68
2022/04/02 04:12:54;;;;;;;1.93;1.30;;;;;2.30;100817.00;;;;5040455;28;20748;-68
2022/04/02 04:15:41;;;;;;;3.33;1.57;;;;;2.30;100809.00;;;;5040261;28;20390;-71
2022/04/02 04:18:27;;;;;;;1.53;1.40;;;;;2.30;100818.00;;;;5042140;28;20240;-68
2022/04/02 04:21:15;;;;;;;1.80;1.07;;;;;2.30;100818.00;;;;5038798;28;20237;-68
2022/04/02 04:24:01;;;;;;;1.30;1.20;;;;;2.40;100819.00;;;;5046622;28;20238;-70
2022/04/02 04:26:48;;;;;;;1.77;1.67;;;;;2.30;100818.00;;;;5035359;28;20240;-69
2022/04/02 04:29:35;;;;;;;2.27;1.60;;;;;2.30;100819.00;;;;5031096;28;20232;-69
2022/04/02 04:32:21;;;;;;;2.17;1.40;;;;;2.30;100826.00;;;;5046308;28;20240;-70
2022/04/02 04:35:08;;;;;;;2.70;1.57;;;;;2.30;100826.00;;;;5046568;28;20903;-69
2022/04/02 04:37:54;;;;;;;1.63;1.53;;;;;2.40;100844.00;;;;5046795;28;20232;-69
2022/04/02 04:40:40;;;;;;;1.47;1.37;;;;;2.30;100834.00;;;;5032791;28;20307;-71
2022/04/02 04:43:28;;;;;;;1.70;1.30;;;;;2.30;100822.00;;;;5046326;28;20750;-69
2022/04/02 04:46:15;;;;;;;3.23;1.20;;;;;2.30;100844.00;;;;5046070;28;20233;-68
2022/04/02 04:49:02;;;;;;;1.37;1.27;;;;;2.30;100847.00;;;;5032719;28;21029;-70
2022/04/02 04:51:48;;;;;;;2.73;1.50;;;;;2.30;100855.00;;;;5034717;28;20236;-69
2022/04/02 04:54:34;;;;;;;1.70;1.57;;;;;2.40;100855.00;;;;5031157;28;20245;-69
2022/04/02 04:57:21;;;;;;;2.33;1.60;;;;;2.30;100855.00;;;;5045887;28;20282;-66
2022/04/02 05:00:10;;;;;;;2.07;1.40;;;;;2.30;100860.00;;;;5045601;28;20725;-69
2022/04/02 05:02:56;;;;;;;1.97;1.70;;;;;2.30;100853.00;;;;5046397;28;20236;-68
2022/04/02 05:05:43;;;;;;;1.97;1.60;;;;;2.20;100855.00;;;;5032946;28;20237;-70
2022/04/02 05:08:32;;;;;;;1.50;1.40;;;;;2.20;100866.00;;;;5046128;28;20308;-69
2022/04/02 05:11:18;;;;;;;1.40;1.30;;;;;2.30;100874.00;;;;5045601;28;20232;-68
2022/04/02 05:14:05;;;;;;;1.93;1.73;;;;;2.30;100871.00;;;;5038432;28;20237;-71
2022/04/02 05:16:53;;;;;;;3.40;1.60;;;;;2.30;100873.00;;;;5040392;28;20232;-69
2022/04/02 05:19:39;;;;;;;4.53;1.50;;;;;2.30;100826.00;;;;5015474;28;20237;-70
2022/04/02 05:22:25;;;;;;;3.17;2.00;;;;;2.30;100873.00;;;;5029580;28;20388;-70
2022/04/02 05:25:12;;;;;;;1.50;1.20;;;;;2.30;100889.00;;;;5045258;28;20240;-69
2022/04/02 05:27:58;;;;;;;1.63;1.53;;;;;2.30;100883.00;;;;5045801;28;20229;-69
2022/04/02 05:30:45;;;;;;;2.10;1.90;;;;;2.30;100887.00;;;;5033038;28;20245;-71
2022/04/02 05:33:33;;;;;;;1.80;1.70;;;;;2.20;100890.00;;;;5045285;28;20224;-68
2022/04/02 05:36:26;;;;;;;2.97;1.67;;;;;2.20;100889.00;;;;5044708;28;20228;-70
2022/04/02 05:39:12;;;;;;;7.70;1.50;;;;;2.30;100896.00;;;;5044831;28;20227;-69
2022/04/02 05:41:59;;;;;;;2.63;1.47;;;;;2.30;100896.00;;;;5045527;28;20290;-69
2022/04/02 05:44:45;;;;;;;2.60;1.50;;;;;2.30;100876.00;;;;5031907;28;20284;-70
2022/04/02 05:47:41;;;;;;;1.87;1.67;;;;;2.40;100912.00;;;;5023379;28;20296;-68
2022/04/02 05:50:28;;;;;;;1.57;1.30;;;;;2.40;100912.00;;;;5042847;28;20587;-69
2022/04/02 05:53:23;;;;;;;1.40;1.30;;;;;2.40;100914.00;;;;5044848;28;20240;-69
2022/04/02 05:56:09;;;;;;;1.37;1.27;;;;;2.50;100909.00;;;;5044895;28;20229;-71
2022/04/02 05:58:56;;;;;;;1.37;1.27;;;;;2.40;100916.00;;;;5045022;28;20223;-69
2022/04/02 06:01:43;;;;;;;2.10;1.40;;;;;2.50;100925.00;;;;5017963;28;20236;-68
2022/04/02 06:04:29;;;;;;;1.80;1.40;;;;;2.50;100931.00;;;;5016400;28;20225;-71
2022/04/02 06:07:17;;;;;;;1.60;1.50;;;;;2.50;100931.00;;;;5034460;28;20241;-69
2022/04/02 06:10:04;;;;;;;4.87;1.30;;;;;2.50;100929.00;;;;5030387;28;20224;-68
2022/04/02 06:12:51;;;;;;;1.67;1.50;;;;;2.50;100936.00;;;;5034162;28;20594;-68
2022/04/02 06:15:38;;;;;;;2.57;1.90;;;;;2.50;100935.00;;;;5043358;28;20251;-69
2022/04/02 06:18:25;;;;;;;1.83;1.57;;;;;2.50;100937.00;;;;5041987;28;20289;-69
2022/04/02 06:21:11;;;;;;;3.40;2.10;;;;;2.70;100942.00;;;;5038941;28;20232;-68
2022/04/02 06:24:04;;;;;;;2.77;1.90;;;;;2.70;100940.00;;;;5046403;28;20344;-68
2022/04/02 06:26:50;;;;;;;4.93;2.40;;;;;2.70;100951.00;;;;5034540;28;20309;-70
2022/04/02 06:29:37;;;;;;;4.27;3.10;;;;;2.70;100957.00;;;;5045596;28;20307;-69
2022/04/02 06:32:23;;;;;;;2.27;1.93;;;;;2.70;100961.00;;;;5047144;28;20291;-69
2022/04/02 06:35:10;;;;;;;2.63;1.80;;;;;2.70;100957.00;;;;5047486;28;20236;-69
2022/04/02 06:37:57;;;;;;;2.00;1.77;;;;;2.70;100958.00;;;;5035915;28;20243;-69
2022/04/02 06:40:45;;;;;;;2.13;1.70;;;;;2.70;100967.00;;;;5031424;28;20232;-68
2022/04/02 06:43:31;;;;;;;4.73;1.67;;;;;2.90;100968.00;;;;5046845;28;20228;-68
2022/04/02 06:46:17;;;;;;;2.37;1.90;;;;;2.90;100974.00;;;;5047319;28;20240;-69
2022/04/02 06:49:10;;;;;;;4.80;1.50;;;;;2.90;100966.00;;;;5044023;28;20228;-69
2022/04/02 06:51:57;;;;;;;2.03;1.70;;;;;3.00;100978.00;;;;5038794;28;20733;-68
2022/04/02 06:54:43;;;;;;;2.03;1.80;;;;;2.90;100985.00;;;;5031081;28;20587;-69
2022/04/02 06:57:31;;;;;;;2.77;1.80;;;;;2.90;100961.00;;;;5046505;28;20229;-69
2022/04/02 07:00:19;;;;;;;2.73;1.70;;;;;3.00;100987.00;;;;5045418;28;20255;-66
2022/04/02 07:03:05;;;;;;;2.70;1.90;;;;;3.00;100993.00;;;;5045630;28;20232;-69
2022/04/02 07:05:51;;;;;;;1.77;1.40;;;;;3.00;100986.00;;;;5033439;28;20231;-68
2022/04/02 07:08:38;;;;;;;2.07;1.70;;;;;3.00;100996.00;;;;5017278;28;20275;-69
2022/04/02 07:11:24;;;;;;;2.13;1.53;;;;;3.10;100995.00;;;;5017774;28;20349;-70
2022/04/02 07:14:11;;;;;;;2.17;1.87;;;;;3.20;100997.00;;;;5043207;28;20244;-71
2022/04/02 07:16:58;;;;;;;2.33;1.80;;;;;3.20;101002.00;;;;5036274;28;20232;-70
2022/04/02 07:19:47;;;;;;;2.87;1.70;;;;;3.20;101004.00;;;;5040403;28;20233;-69
2022/04/02 07:22:35;;;;;;;3.80;1.47;;;;;3.10;101000.00;;;;5047121;28;20768;-69
2022/04/02 07:25:21;;;;;;;1.97;1.80;;;;;3.20;100998.00;;;;5047204;28;20324;-68
2022/04/02 07:28:09;;;;;;;5.03;1.73;;;;;3.20;101011.00;;;;5047251;28;20733;-69
2022/04/02 07:30:56;;;;;;;2.73;1.80;;;;;3.30;101011.00;;;;5035508;28;20232;-69
2022/04/02 07:33:43;;;;;;;8.13;2.00;;;;;3.30;101006.00;;;;5030072;28;20224;-68
2022/04/02 07:36:40;;;;;;;1.77;1.67;;;;;3.30;101010.00;;;;5048081;28;20255;-69
2022/04/02 07:39:34;;;;;;;1.73;1.63;;;;;3.40;101020.00;;;;5046122;28;20275;-69
2022/04/02 07:42:23;;;;;;;2.73;1.57;;;;;3.50;101017.00;;;;5046342;28;20292;-69
2022/04/02 07:45:13;;;;;;;6.17;2.20;;;;;3.60;101030.00;;;;5045744;28;20224;-70
2022/04/02 07:48:07;;;;;;;2.23;2.00;;;;;3.70;101024.00;;;;5047520;28;20293;-69
2022/04/02 07:50:54;;;;;;;1.70;1.60;;;;;3.80;101033.00;;;;5055181;28;20233;-70
2022/04/02 07:53:45;;;;;;;2.77;2.03;;;;;3.70;101038.00;;;;5049650;28;20231;-71
2022/04/02 07:56:38;;;;;;;2.97;2.17;;;;;3.80;101034.00;;;;5069391;28;20232;-71
2022/04/02 07:59:31;;;;;;;3.07;2.00;;;;;3.70;101042.00;;;;5070491;28;20244;-69
2022/04/02 08:05:35;;;;;;;2.83;1.87;;;;;3.80;101052.00;;;;4990095;28;20252;-70
2022/04/02 08:08:24;;;;;;;3.03;2.10;;;;;3.80;101041.00;;;;5070270;28;20272;-69
2022/04/02 08:11:11;;;;;;;2.70;2.00;;;;;3.80;101057.00;;;;5071320;28;20219;-73
2022/04/02 08:13:58;;;;;;;2.50;1.97;;;;;3.80;101052.00;;;;5055622;28;20236;-70
2022/04/02 08:16:45;;;;;;;3.37;2.40;;;;;3.70;101058.00;;;;5046087;28;20243;-69
2022/04/02 08:19:34;;;;;;;2.93;1.97;;;;;3.90;101061.00;;;;5035648;28;20225;-69
2022/04/02 08:22:21;;;;;;;5.90;2.70;;;;;3.90;101052.00;;;;5042892;28;20241;-69
2022/04/02 08:25:08;;;;;;;4.20;2.13;;;;;3.90;101046.00;;;;5034308;28;20717;-70
2022/04/02 08:28:05;;;;;;;6.43;2.60;;;;;4.00;101052.00;;;;5016099;28;20600;-68
2022/04/02 08:31:04;;;;;;;5.83;2.30;;;;;4.10;101058.00;;;;5020824;28;20818;-70
2022/04/02 08:33:57;;;;;;;2.83;2.23;;;;;4.20;101067.00;;;;5015835;28;20367;-69
2022/04/02 08:36:49;;;;;;;3.23;2.60;;;;;4.30;101063.00;;;;5018324;28;20239;-69
2022/04/02 08:39:49;;;;;;;3.57;2.53;;;;;4.30;101077.00;;;;5019051;28;20229;-69
2022/04/02 08:43:06;;;;;;;3.63;2.17;;;;;4.30;101068.00;;;;5022176;28;20234;-66
2022/04/02 08:45:58;;;;;;;3.20;2.47;;;;;4.40;101077.00;;;;5029550;28;20232;-68
2022/04/02 08:48:54;;;;;;;4.57;3.00;;;;;4.40;101074.00;;;;5045218;28;20241;-68
2022/04/02 08:51:42;;;;;;;6.23;2.90;;;;;4.50;101076.00;;;;5046194;28;20634;-69
2022/04/02 08:54:32;;;;;;;6.70;3.17;;;;;4.50;101093.00;;;;5046148;28;20235;-67
2022/04/02 08:57:28;;;;;;;7.03;3.40;;;;;4.60;101092.00;;;;5046228;28;20240;-69
2022/04/02 09:00:23;;;;;;;3.67;2.60;;;;;4.60;101089.00;;;;5038186;28;20870;-69
2022/04/02 09:03:36;;;;;;;3.70;2.40;;;;;4.70;101091.00;;;;5019228;28;20364;-70
2022/04/02 09:06:58;;;;;;;3.47;2.77;;;;;4.60;101104.00;;;;5011106;28;20325;-71
2022/04/02 09:10:13;;;;;;;6.37;2.97;;;;;4.50;101102.00;;;;5013631;28;20233;-69
2022/04/02 09:13:26;;;;;;;7.40;3.33;;;;;4.70;101093.00;;;;5029975;28;20247;-67
2022/04/02 09:16:23;;;;;;;3.07;2.40;;;;;4.70;101119.00;;;;5034837;28;20238;-68
2022/04/02 09:19:13;;;;;;;3.87;2.70;;;;;4.70;101123.00;;;;5026660;28;20247;-69
2022/04/02 09:22:06;;;;;;;4.10;2.73;;;;;4.70;101104.00;;;;5030687;28;20756;-70
2022/04/02 09:25:20;;;;;;;4.00;2.40;;;;;4.50;101121.00;;;;5026639;28;20330;-68
2022/04/02 09:28:34;;;;;;;3.33;2.33;;;;;4.60;101113.00;;;;5032935;28;20236;-70
2022/04/02 09:31:50;;;;;;;3.67;2.70;;;;;5.00;101110.00;;;;5038544;28;20343;-69
2022/04/02 09:35:13;;;;;;;3.67;2.40;;;;;4.90;101126.00;;;;5040817;28;21106;-68
2022/04/02 09:38:27;;;;;;;5.73;2.40;;;;;4.90;101116.00;;;;5026967;28;20791;-69
2022/04/02 09:41:24;;;;;;;6.33;2.67;;;;;4.90;101114.00;;;;5014076;28;20237;-70
2022/04/02 09:44:51;;;;;;;5.53;3.00;;;;;4.80;101123.00;;;;5038247;28;20322;-68
2022/04/02 09:48:07;;;;;;;3.00;2.07;;;;;4.80;101133.00;;;;4995772;28;20729;-67
2022/04/02 09:50:56;;;;;;;3.33;2.43;;;;;5.30;101132.00;;;;5028286;28;20233;-70
2022/04/02 09:53:53;;;;;;;3.13;2.30;;;;;5.10;101121.00;;;;5042638;28;20241;-68
2022/04/02 09:56:41;;;;;;;3.07;1.90;;;;;5.30;101127.00;;;;5014306;28;20341;-68
2022/04/02 09:59:49;;;;;;;3.13;2.20;;;;;5.40;101130.00;;;;5023022;28;20299;-68
2022/04/02 10:02:57;;;;;;;4.63;2.90;;;;;5.50;101134.00;;;;5037428;28;20244;-69
2022/04/02 10:05:45;;;;;;;3.60;2.13;;;;;5.30;101130.00;;;;5042255;28;20224;-68
2022/04/02 10:08:39;;;;;;;2.87;2.40;;;;;5.30;101142.00;;;;5029925;28;20868;-68
2022/04/02 10:11:30;;;;;;;3.50;2.93;;;;;5.50;101140.00;;;;5042069;28;20237;-68
2022/04/02 10:14:21;;;;;;;2.53;2.03;;;;;5.40;101140.00;;;;5037809;28;20271;-68
2022/04/02 10:17:08;;;;;;;4.27;2.23;;;;;5.50;101138.00;;;;5037107;28;21053;-67
2022/04/02 10:19:57;;;;;;;3.87;2.70;;;;;5.40;101142.00;;;;5028241;28;20224;-66
2022/04/02 10:22:45;;;;;;;6.43;3.37;;;;;5.40;101143.00;;;;5017995;28;20308;-68
2022/04/02 10:25:39;;;;;;;7.20;3.40;;;;;5.40;101146.00;;;;5024906;28;20237;-69
2022/04/02 10:28:30;;;;;;;2.60;2.40;;;;;5.20;101107.00;;;;5018712;28;20234;-71
2022/04/02 10:31:35;;;;;;;4.13;2.70;;;;;5.30;101144.00;;;;5013785;28;20227;-69
2022/04/02 10:34:44;;;;;;;5.17;2.93;;;;;5.40;101146.00;;;;5019701;28;20230;-69
2022/04/02 10:37:38;;;;;;;5.67;3.67;;;;;5.30;101137.00;;;;5022270;28;20287;-69
2022/04/02 10:40:26;;;;;;;2.83;2.50;;;;;5.40;101134.00;;;;5009726;28;20230;-70
2022/04/02 10:43:24;;;;;;;4.67;2.83;;;;;5.70;101153.00;;;;5016810;28;20229;-69
2022/04/02 10:46:11;;;;;;;4.90;3.17;;;;;5.90;101141.00;;;;5008177;28;20316;-69
2022/04/02 10:49:00;;;;;;;4.23;2.93;;;;;6.20;101146.00;;;;5014784;28;20230;-71
2022/04/02 10:51:54;;;;;;;3.10;2.47;;;;;6.10;101144.00;;;;5024703;28;20746;-67
2022/04/02 10:54:42;;;;;;;7.10;3.33;;;;;5.80;101122.00;;;;5038916;28;20386;-70
2022/04/02 10:57:29;;;;;;;2.60;2.40;;;;;5.70;101150.00;;;;5042159;28;20247;-67
2022/04/02 11:00:17;;;;;;;2.50;2.30;;;;;5.60;101141.00;;;;5043689;28;20286;-67
2022/04/02 11:03:07;;;;;;;4.03;2.80;;;;;5.70;101137.00;;;;5044313;28;20786;-68
2022/04/02 11:05:54;;;;;;;6.50;2.80;;;;;5.80;101139.00;;;;5028363;28;20588;-68
2022/04/02 11:08:42;;;;;;;3.13;2.57;;;;;6.00;101149.00;;;;5043379;28;20236;-68
2022/04/02 11:11:29;;;;;;;6.00;3.33;;;;;5.90;101141.00;;;;5036756;28;21210;-69
2022/04/02 11:14:21;;;;;;;3.20;2.50;;;;;6.00;101142.00;;;;5039327;28;20233;-66
2022/04/02 11:17:08;;;;;;;4.77;3.03;;;;;5.70;101144.00;;;;5031787;28;20244;-68
2022/04/02 11:20:03;;;;;;;3.43;2.43;;;;;5.60;101143.00;;;;5033121;28;20327;-68
2022/04/02 11:23:06;;;;;;;4.43;2.43;;;;;5.60;101126.00;;;;5043304;28;20231;-64
2022/04/02 11:26:02;;;;;;;4.20;2.27;;;;;5.80;101148.00;;;;5027691;28;20363;-70
2022/04/02 11:28:53;;;;;;;3.83;2.33;;;;;6.00;101147.00;;;;5042782;28;20283;-69
2022/04/02 11:31:46;;;;;;;3.13;2.50;;;;;6.30;101139.00;;;;5041529;28;20371;-69
2022/04/02 11:34:36;;;;;;;3.47;1.93;;;;;6.40;101151.00;;;;5043377;28;20232;-69
2022/04/02 11:37:35;;;;;;;3.00;2.30;;;;;6.60;101153.00;;;;5043364;28;20240;-71
2022/04/02 11:40:24;;;;;;;3.97;2.20;;;;;6.40;101156.00;;;;5019451;28;20379;-69
2022/04/02 11:43:14;;;;;;;3.63;2.33;;;;;6.40;101156.00;;;;5031945;28;20327;-68
2022/04/02 11:46:04;;;;;;;2.63;2.10;;;;;6.40;101168.00;;;;5029697;28;20279;-68
2022/04/02 11:48:54;;;;;;;2.87;2.23;;;;;6.20;101153.00;;;;5042813;28;20303;-68
2022/04/02 11:51:40;;;;;;;5.43;2.50;;;;;6.20;101156.00;;;;5015147;28;20729;-69
2022/04/02 11:54:26;;;;;;;4.13;2.47;;;;;6.30;101159.00;;;;5011273;28;21074;-69
2022/04/02 11:57:15;;;;;;;3.27;2.40;;;;;6.20;101156.00;;;;5019196;28;20288;-71
2022/04/02 12:00:13;;;;;;;3.60;2.40;;;;;6.50;101158.00;;;;5009266;28;20325;-70
2022/04/02 12:03:00;;;;;;;2.20;2.00;;;;;6.70;101146.00;;;;5012862;28;20233;-68
2022/04/02 12:05:48;;;;;;;3.47;2.70;;;;;6.70;101162.00;;;;5041005;28;20577;-67
2022/04/02 12:08:34;;;;;;;4.30;2.20;;;;;6.40;101163.00;;;;5043541;28;20884;-68
2022/04/02 12:11:24;;;;;;;2.43;2.00;;;;;6.20;101164.00;;;;5043424;28;20240;-68
2022/04/02 12:14:25;;;;;;;5.23;2.43;;;;;6.30;101132.00;;;;5013159;28;20345;-65
2022/04/02 12:17:16;;;;;;;4.10;2.10;;;;;6.20;101170.00;;;;5031605;28;20329;-67
2022/04/02 12:20:07;;;;;;;2.07;1.63;;;;;6.20;101170.00;;;;5026452;28;20356;-68
2022/04/02 12:23:06;;;;;;;2.70;1.90;;;;;6.20;101164.00;;;;5040850;28;20240;-66
2022/04/02 12:25:56;;;;;;;3.17;2.03;;;;;6.60;101158.00;;;;5031450;28;20598;-69
2022/04/02 12:28:47;;;;;;;3.43;2.17;;;;;7.10;101153.00;;;;5046738;28;20232;-68
2022/04/02 12:31:35;;;;;;;5.10;3.33;;;;;7.80;101155.00;;;;5041082;28;20788;-67
2022/04/02 12:34:26;;;;;;;2.47;2.00;;;;;8.30;101161.00;;;;5046763;28;20231;-67
2022/04/02 12:37:13;;;;;;;2.37;1.90;;;;;8.40;101157.00;;;;5031997;28;20256;-67
2022/04/02 12:40:16;;;;;;;2.83;1.90;;;;;7.90;101151.00;;;;5046824;28;20275;-68
2022/04/02 12:43:06;;;;;;;2.80;2.10;;;;;7.80;101150.00;;;;5032399;28;20318;-68
2022/04/02 12:45:54;;;;;;;4.07;2.00;;;;;7.90;101160.00;;;;5044245;28;20220;-68
2022/04/02 12:48:42;;;;;;;2.17;1.70;;;;;7.80;101157.00;;;;5024766;28;20260;-67
2022/04/02 12:51:32;;;;;;;1.60;1.50;;;;;7.90;101150.00;;;;5031502;28;20244;-63
2022/04/02 12:54:30;;;;;;;2.20;1.77;;;;;8.10;101152.00;;;;5035839;28;20247;-66
2022/04/02 12:57:17;;;;;;;1.60;1.37;;;;;8.80;101153.00;;;;5042916;28;20598;-68
2022/04/02 13:00:05;;;;;;;2.00;1.57;;;;;8.90;101155.00;;;;5032100;28;20236;-69
2022/04/02 13:02:56;;;;;;;2.67;1.67;;;;;8.90;101146.00;;;;5045997;28;20244;-68
2022/04/02 13:05:52;;;;;;;2.17;1.60;;;;;8.50;101149.00;;;;5020103;28;20241;-67
2022/04/02 13:08:55;;;;;;;3.77;2.13;;;;;8.30;101156.00;;;;5046243;28;20249;-67
2022/04/02 13:11:45;;;;;;;1.70;1.60;;;;;8.10;101160.00;;;;5042924;28;20239;-65
2022/04/02 13:14:42;;;;;;;1.83;1.50;;;;;8.10;101148.00;;;;5039847;28;20229;-67
2022/04/02 13:17:39;;;;;;;1.67;1.47;;;;;8.50;101155.00;;;;5038108;28;20243;-70
2022/04/02 13:20:28;;;;;;;2.87;1.90;;;;;9.10;101145.00;;;;5033856;28;20302;-64
2022/04/02 13:23:46;;;;;;;3.00;1.70;;;;;9.00;101154.00;;;;5038878;28;20717;-67
2022/04/02 13:26:35;;;;;;;1.80;1.53;;;;;8.90;101143.00;;;;5039482;28;20233;-67
2022/04/02 13:29:35;;;;;;;2.47;1.90;;;;;8.70;101144.00;;;;5023014;28;20746;-68
2022/04/02 13:32:38;;;;;;;5.23;1.93;;;;;8.60;101153.00;;;;5036262;28;20236;-67
2022/04/02 13:35:32;;;;;;;1.80;1.60;;;;;8.30;101155.00;;;;5036067;28;20735;-67
2022/04/02 13:38:47;;;;;;;1.87;1.60;;;;;8.20;101151.00;;;;5045518;28;20240;-67
2022/04/02 13:41:38;;;;;;;3.37;1.90;;;;;7.90;101141.00;;;;5038479;28;20252;-69
2022/04/02 13:44:27;;;;;;;1.83;1.60;;;;;7.80;101147.00;;;;5020745;28;20224;-68
2022/04/02 13:47:27;;;;;;;1.67;1.40;;;;;7.60;101158.00;;;;5033101;28;20244;-67
2022/04/02 13:50:20;;;;;;;2.63;1.47;;;;;7.70;101155.00;;;;5017890;28;20233;-63
2022/04/02 13:53:08;;;;;;;3.73;1.47;;;;;8.20;101156.00;;;;5030897;28;20298;-66
2022/04/02 13:56:02;;;;;;;1.83;1.50;;;;;8.20;101163.00;;;;5044083;28;20264;-67
2022/04/02 13:58:58;;;;;;;5.07;2.40;;;;;8.00;101163.00;;;;5041914;28;20310;-65
2022/04/02 14:01:53;;;;;;;2.73;2.00;;;;;7.90;101152.00;;;;5029637;28;20240;-62
2022/04/02 14:04:44;;;;;;;3.20;2.10;;;;;7.60;101155.00;;;;5044967;28;20278;-66
2022/04/02 14:07:34;;;;;;;2.30;2.00;;;;;7.60;101167.00;;;;5045332;28;20256;-66
2022/04/02 14:10:22;;;;;;;1.70;1.60;;;;;7.60;101161.00;;;;5033751;28;20717;-66
2022/04/02 14:13:18;;;;;;;2.70;2.00;;;;;7.60;101160.00;;;;5030940;28;20287;-68
2022/04/02 14:16:15;;;;;;;1.93;1.77;;;;;8.00;101169.00;;;;5038041;28;20364;-66
2022/04/02 14:19:07;;;;;;;3.53;2.20;;;;;8.00;101177.00;;;;5007080;28;20232;-67
2022/04/02 14:21:55;;;;;;;3.13;2.17;;;;;8.00;101174.00;;;;5041740;28;20315;-66